KBNO/BNO METAR and TAF weather

Enter ICAO airport designator
Station Type Date Time Source
KBNO METAR 2021/07/24 20:53 UTC NOAA

KBNO 242053Z AUTO 00000KT 10SM CLR 31/00 A3017 RMK AO2 SLP175 T03110000 58016


Station Type Date Time Source
KBNO Decoded METAR 2021/07/24 20:53 UTC NOAA

BURNS MUNICIPAL AIRPORT, OR, United States (KBNO) 43-36N 118-57W 1264M
Jul 24, 2021 - 04:53 PM EDT / 2021.07.24 2053 UTC
Wind: Calm:0
Visibility: 10 mile(s):0
Sky conditions: clear
Temperature: 88.0 F (31.1 C)
Dew Point: 32.0 F (0.0 C)
Relative Humidity: 13%
Pressure (altimeter): 30.17 in. Hg (1021 hPa)
Pressure tendency: 0.05 inches (1.6 hPa) lower than three hours ago
ob: KBNO 242053Z AUTO 00000KT 10SM CLR 31/00 A3017 RMK AO2 SLP175 T03110000 58016
cycle: 21

Station Type Date Time Source
KBNO TAF 2021/07/24 18:24 UTC NOAA

TAF KBNO 241722Z 2418/2518 VRB06KT P6SM BKN070
FM250200 30008KT 6SM FU BKN070

Example: see airport list